Time;durP1;ratioP1;P1;durP2;ratioP2;P2;SDS_P1;SDS_P2;PMS_P1;PMS_P2;Temp;Humidity;BMP_temperature;BMP_pressure;BME280_temperature;BME280_humidity;BME280_pressure;Samples;Min_cycle;Max_cycle;Signal;HPM_P1;HPM_P2
2023/05/03 00:00:43;;;;;;;3.90;3.03;;;;;;;;;;4958498;28;20042;-87
2023/05/03 00:03:09;;;;;;;8.07;2.83;;;;;;;;;;4980445;28;20041;-86
2023/05/03 00:05:36;;;;;;;5.40;3.10;;;;;;;;;;4974547;28;20183;-86
2023/05/03 00:08:02;;;;;;;8.38;2.47;;;;;;;;;;4962098;28;20034;-86
2023/05/03 00:10:28;;;;;;;3.75;2.47;;;;;;;;;;4963976;28;20133;-86
2023/05/03 00:12:55;;;;;;;5.30;2.65;;;;;;;;;;4958403;28;20129;-86
2023/05/03 00:15:21;;;;;;;4.90;2.30;;;;;;;;;;4957317;28;20054;-86
2023/05/03 00:17:47;;;;;;;3.78;2.58;;;;;;;;;;4958039;28;20100;-86
2023/05/03 00:20:14;;;;;;;5.85;2.65;;;;;;;;;;4980297;28;20095;-86
2023/05/03 00:22:40;;;;;;;6.65;2.75;;;;;;;;;;4973736;28;20049;-86
2023/05/03 00:25:07;;;;;;;6.07;2.35;;;5.00;99.90;;;;;;4974011;28;20242;-86
2023/05/03 00:27:34;;;;;;;4.10;2.90;;;;;;;;;;4974072;28;20077;-86
2023/05/03 00:30:00;;;;;;;3.58;2.33;;;;;;;;;;4981504;28;20552;-86
2023/05/03 00:32:26;;;;;;;6.43;2.72;;;;;;;;;;4975945;28;20141;-85
2023/05/03 00:34:53;;;;;;;4.15;2.63;;;;;;;;;;4958014;28;20057;-87
2023/05/03 00:37:19;;;;;;;5.15;3.13;;;;;;;;;;4964627;28;20042;-86
2023/05/03 00:39:45;;;;;;;6.53;3.08;;;;;;;;;;4958018;28;20413;-85
2023/05/03 00:42:11;;;;;;;4.75;2.60;;;;;;;;;;4975979;28;20078;-86
2023/05/03 00:44:37;;;;;;;6.03;3.17;;;;;;;;;;4957270;28;20049;-86
2023/05/03 00:47:03;;;;;;;7.90;3.00;;;;;;;;;;4957255;28;20047;-86
2023/05/03 00:49:29;;;;;;;5.30;2.70;;;;;;;;;;4978471;28;20056;-86
2023/05/03 00:51:58;;;;;;;6.00;2.60;;;;;;;;;;4962481;28;20082;-85
2023/05/03 00:54:24;;;;;;;6.07;2.28;;;;;;;;;;4970552;28;20038;-86
2023/05/03 00:56:50;;;;;;;2.90;2.38;;;;;;;;;;4972814;28;20645;-86
2023/05/03 00:59:16;;;;;;;12.93;3.40;;;;;;;;;;4957439;28;20054;-86
2023/05/03 01:01:42;;;;;;;7.60;3.22;;;;;;;;;;4961484;28;20038;-87
2023/05/03 01:04:09;;;;;;;9.45;2.50;;;;;;;;;;4958121;28;20050;-86
2023/05/03 01:06:38;;;;;;;3.33;2.80;;;;;;;;;;4973015;28;20038;-85
2023/05/03 01:09:22;;;;;;;5.63;3.20;;;;;;;;;;4972984;28;20038;-86
2023/05/03 01:12:15;;;;;;;7.80;2.87;;;;;;;;;;4956623;28;20038;-86
2023/05/03 01:15:00;;;;;;;5.38;2.65;;;;;;;;;;4927487;28;20297;-86
2023/05/03 01:17:35;;;;;;;6.90;3.37;;;;;;;;;;4955100;28;20042;-88
2023/05/03 01:20:01;;;;;;;;;;;;;;;;;;4975670;28;20290;-87
2023/05/03 01:22:33;;;;;;;6.13;3.45;;;;;;;;;;4971396;28;19932;-88
2023/05/03 01:25:12;;;;;;;9.27;3.00;;;;;;;;;;4956663;28;20053;-87
2023/05/03 01:27:38;;;;;;;6.22;3.40;;;;;;;;;;4971252;28;20069;-88
2023/05/03 01:30:05;;;;;;;7.88;2.75;;;;;;;;;;4971329;28;20038;-89
2023/05/03 01:32:38;;;;;;;5.38;3.22;;;;;;;;;;4955120;28;20046;-89
2023/05/03 01:35:06;;;;;;;7.45;4.15;;;;;;;;;;4971203;28;20058;-88
2023/05/03 01:37:33;;;;;;;4.65;3.05;;;;;;;;;;4955265;28;20053;-88
2023/05/03 01:40:00;;;;;;;4.88;3.00;;;;;;;;;;4955162;28;20050;-87
2023/05/03 01:42:26;;;;;;;4.97;3.10;;;;;;;;;;4955109;28;20775;-88
2023/05/03 01:44:54;;;;;;;6.25;3.60;;;;;;;;;;4971355;28;20420;-87
2023/05/03 01:47:20;;;;;;;7.07;3.42;;;;;;;;;;4955148;28;20039;-87
2023/05/03 01:49:46;;;;;;;8.38;3.80;;;;;;;;;;4971227;28;20077;-88
2023/05/03 01:52:12;;;;;;;7.40;4.32;;;;;;;;;;4955122;28;20081;-88
2023/05/03 01:54:38;;;;;;;7.30;4.25;;;;;;;;;;4955207;28;20050;-88
2023/05/03 01:57:04;;;;;;;3.60;2.90;;;;;;;;;;4970537;28;20412;-87
2023/05/03 01:59:30;;;;;;;4.60;3.30;;;;;;;;;;4955352;28;20108;-88
2023/05/03 02:01:56;;;;;;;9.90;3.42;;;;;;;;;;4970962;28;20042;-88
2023/05/03 02:04:22;;;;;;;9.45;3.80;;;;;;;;;;4971333;28;20066;-88
2023/05/03 02:06:48;;;;;;;7.80;4.55;;;;;;;;;;4954977;28;20068;-87
2023/05/03 02:09:14;;;;;;;7.45;4.18;;;;;;;;;;4971431;28;20261;-88
2023/05/03 02:11:40;;;;;;;5.38;3.63;;;;;;;;;;4955300;28;20047;-88
2023/05/03 02:14:06;;;;;;;7.32;4.25;;;;;;;;;;4954949;28;20515;-87
2023/05/03 02:16:32;;;;;;;6.55;3.75;;;;;;;;;;4955339;28;20125;-88
2023/05/03 02:18:58;;;;;;;8.82;4.28;;;;;;;;;;4971128;28;20132;-88
2023/05/03 02:21:25;;;;;;;4.40;3.85;;;;;;;;;;4954971;28;20566;-88
2023/05/03 02:23:52;;;;;;;9.40;4.22;;;;;;;;;;4970658;28;20054;-87
2023/05/03 02:26:18;;;;;;;6.57;4.13;;;;;;;;;;4954744;28;20112;-88
2023/05/03 02:28:44;;;;;;;6.10;3.50;;;;;;;;;;4970617;28;20042;-88
2023/05/03 02:31:12;;;;;;;6.15;4.00;;;;;;;;;;4970520;28;20049;-88
2023/05/03 02:33:38;;;;;;;4.75;3.70;;;;;;;;;;4963101;28;20150;-88
2023/05/03 02:36:04;;;;;;;5.57;4.53;;;;;;;;;;4953918;28;20153;-88
2023/05/03 02:38:30;;;;;;;4.47;3.38;;;;;;;;;;4954472;28;20061;-88
2023/05/03 02:40:56;;;;;;;5.43;3.75;;;;;;;;;;4969986;28;20050;-88
2023/05/03 02:43:22;;;;;;;9.05;3.85;;;;;;;;;;4954118;28;20381;-88
2023/05/03 02:45:48;;;;;;;6.03;3.70;;;;;;;;;;4954209;28;20046;-88
2023/05/03 02:48:15;;;;;;;3.97;3.30;;;;;;;;;;4953917;28;20129;-88
2023/05/03 02:50:41;;;;;;;8.05;3.28;;;;;;;;;;4954107;28;20181;-88
2023/05/03 02:53:07;;;;;;;4.68;3.85;;;;;;;;;;4952879;28;20536;-88
2023/05/03 02:55:33;;;;;;;5.40;3.63;;;;;;;;;;4954103;28;20508;-88
2023/05/03 02:57:59;;;;;;;6.93;3.33;;;;;;;;;;4970069;28;20045;-88
2023/05/03 03:00:26;;;;;;;3.80;3.40;;;;;;;;;;4953687;28;20487;-88
2023/05/03 03:02:52;;;;;;;3.85;2.80;;;;;;;;;;4953375;28;20046;-88
2023/05/03 03:05:18;;;;;;;7.68;3.58;;;;;;;;;;4953821;28;20411;-88
2023/05/03 03:07:44;;;;;;;5.93;3.20;;;;;;;;;;4969132;28;20084;-88
2023/05/03 03:10:10;;;;;;;7.47;3.58;;;;;;;;;;4969233;28;20500;-88
2023/05/03 03:12:36;;;;;;;5.10;3.50;;;;;;;;;;4953530;28;20125;-87
2023/05/03 03:15:02;;;;;;;6.55;3.50;;;;;;;;;;4953566;28;20140;-87
2023/05/03 03:17:29;;;;;;;7.53;3.15;;;;;;;;;;4953253;28;20046;-88
2023/05/03 03:19:55;;;;;;;5.50;2.90;;;;;;;;;;4969776;28;20050;-87
2023/05/03 03:22:20;;;;;;;6.30;3.38;;;;;;;;;;4969414;28;20424;-87
2023/05/03 03:24:46;;;;;;;6.63;3.58;;;;;;;;;;4953654;28;20074;-87
2023/05/03 03:27:12;;;;;;;5.95;3.50;;;;;;;;;;4953696;28;20042;-87
2023/05/03 03:29:39;;;;;;;7.32;3.20;;;;;;;;;;4969191;28;20504;-87
2023/05/03 03:32:05;;;;;;;5.07;3.53;;;;;;;;;;4969761;28;20366;-87
2023/05/03 03:34:31;;;;;;;8.07;4.35;;;;;;;;;;4967191;28;20053;-88
2023/05/03 03:36:57;;;;;;;10.60;3.58;;;;;;;;;;4969452;28;20497;-87
2023/05/03 03:39:23;;;;;;;4.57;3.30;;;;;;;;;;4969509;28;20097;-87
2023/05/03 03:41:49;;;;;;;7.93;3.63;;;;;;;;;;4969483;28;20687;-87
2023/05/03 03:44:15;;;;;;;6.68;3.35;;;;;;;;;;4969532;28;20042;-87
2023/05/03 03:46:41;;;;;;;6.35;3.38;;;;;;;;;;4953262;28;20042;-87
2023/05/03 03:49:07;;;;;;;5.05;3.55;;;;;;;;;;4969287;28;20038;-87
2023/05/03 03:51:33;;;;;;;3.50;2.85;;;;;;;;;;4969174;28;20055;-87
2023/05/03 03:53:59;;;;;;;6.88;3.70;;;;;;;;;;4953161;28;20101;-87
2023/05/03 03:56:25;;;;;;;6.13;3.63;;;;;;;;;;4969200;28;20156;-87
2023/05/03 03:58:51;;;;;;;4.80;3.25;;;;;;;;;;4969204;28;20571;-87
2023/05/03 04:01:17;;;;;;;4.25;3.53;;;;;;;;;;4953016;28;20050;-87
2023/05/03 04:03:46;;;;;;;10.52;3.90;;;;;;;;;;4968975;28;20125;-87
2023/05/03 04:06:12;;;;;;;5.53;4.05;;;;;;;;;;4953112;28;20101;-87
2023/05/03 04:08:38;;;;;;;7.63;3.47;;;;;;;;;;4952862;28;20050;-87
2023/05/03 04:11:10;;;;;;;6.95;3.50;;;;;;;;;;4953076;28;20046;-86
2023/05/03 04:13:36;;;;;;;5.50;3.88;;;;;;;;;;4953353;28;20089;-87
2023/05/03 04:16:02;;;;;;;8.13;4.53;;;;;;;;;;4952834;28;20479;-87
2023/05/03 04:18:28;;;;;;;5.90;3.85;;;;;;;;;;4969527;28;20058;-85
2023/05/03 04:20:54;;;;;;;7.90;3.88;;;;;;;;;;4972958;28;20703;-85
2023/05/03 04:23:20;;;;;;;7.68;3.53;;;;;;;;;;4976171;28;20042;-86
2023/05/03 04:25:47;;;;;;;5.93;4.03;;;;;;;;;;4974438;28;20400;-85
2023/05/03 04:28:14;;;;;;;5.07;3.78;;;;;;;;;;4974384;28;20047;-85
2023/05/03 04:30:40;;;;;;;6.90;4.03;;;;;;;;;;4972041;28;20052;-85
2023/05/03 04:33:06;;;;;;;4.40;3.92;;;;;;;;;;4974456;28;20599;-85
2023/05/03 04:35:33;;;;;;;8.05;4.60;;;;;;;;;;4957779;28;20133;-85
2023/05/03 04:38:00;;;;;;;7.30;3.60;;;;;;;;;;4973932;28;20124;-85
2023/05/03 04:40:26;;;;;;;7.45;3.80;;;;;;;;;;4957493;28;20073;-85
2023/05/03 04:42:52;;;;;;;4.65;3.50;;;;;;;;;;4957229;28;20065;-86
2023/05/03 04:45:19;;;;;;;7.10;4.15;;;;;;;;;;4974070;28;20568;-86
2023/05/03 04:47:45;;;;;;;5.60;3.83;;;;;;;;;;4974060;28;20053;-85
2023/05/03 04:50:11;;;;;;;8.07;4.38;;;;;;;;;;4951503;28;20034;-86
2023/05/03 04:52:37;;;;;;;5.55;4.10;;;;;;;;;;4973189;28;20132;-85
2023/05/03 04:55:04;;;;;;;10.25;4.70;;;;;;;;;;4973440;28;20054;-86
2023/05/03 04:57:31;;;;;;;7.65;4.45;;;;;;;;;;4973931;28;20046;-85
2023/05/03 04:59:57;;;;;;;8.35;3.95;;;;;;;;;;4973393;28;20142;-86
2023/05/03 05:02:23;;;;;;;6.63;5.22;;;;;;;;;;4957169;28;20041;-86
2023/05/03 05:04:49;;;;;;;7.15;5.15;;;;;;;;;;4973707;28;20046;-85
2023/05/03 05:07:16;;;;;;;6.93;4.70;;;;;;;;;;4957698;28;20070;-85
2023/05/03 05:09:42;;;;;;;9.73;4.55;;;;;;;;;;4973213;28;20053;-86
2023/05/03 05:12:08;;;;;;;8.38;4.63;;;;;;;;;;4973157;28;20467;-86
2023/05/03 05:14:34;;;;;;;5.82;4.45;;;;;;;;;;4957437;28;20044;-86
2023/05/03 05:17:00;;;;;;;8.38;4.07;;;;;;;;;;4973892;28;20061;-85
2023/05/03 05:19:26;;;;;;;6.75;4.68;;;;;;;;;;4973125;28;20042;-86
2023/05/03 05:21:52;;;;;;;7.78;4.40;;;;;;;;;;4957468;28;20084;-86
2023/05/03 05:24:18;;;;;;;8.30;4.85;;;;;;;;;;4973710;28;20125;-86
2023/05/03 05:26:44;;;;;;;7.47;4.80;;;;;;;;;;4973402;28;20034;-85
2023/05/03 05:29:10;;;;;;;6.47;4.82;;;;;;;;;;4973450;28;20121;-85
2023/05/03 05:31:36;;;;;;;9.38;4.72;;;;;;;;;;4971746;28;20078;-85
2023/05/03 05:34:03;;;;;;;10.00;5.13;;;;;;;;;;4973394;28;20084;-86
2023/05/03 05:36:29;;;;;;;8.80;5.32;;;5.40;99.90;;;;;;4973342;28;20050;-85
2023/05/03 05:38:55;;;;;;;7.38;4.53;;;;;;;;;;4973687;28;20501;-86
2023/05/03 05:41:21;;;;;;;12.00;4.95;;;;;;;;;;4957357;28;20109;-86
2023/05/03 05:43:47;;;;;;;8.27;5.03;;;;;;;;;;4972471;28;21357;-85
2023/05/03 05:46:13;;;;;;;5.28;4.78;;;;;;;;;;4973901;28;20053;-85
2023/05/03 05:48:40;;;;;;;9.43;5.30;;;;;;;;;;4958117;28;20038;-85
2023/05/03 05:51:06;;;;;;;7.85;5.07;;;;;;;;;;4973120;28;20050;-85
2023/05/03 05:53:33;;;;;;;9.55;5.10;;;;;;;;;;4956900;28;20046;-86
2023/05/03 05:55:59;;;;;;;12.25;4.78;;;;;;;;;;4973840;28;20149;-86
2023/05/03 05:58:25;;;;;;;9.80;4.57;;;;;;;;;;4972661;28;20492;-86
2023/05/03 06:00:51;;;;;;;9.43;5.50;;;;;;;;;;4955959;28;20046;-87
2023/05/03 06:03:17;;;;;;;8.82;5.22;;;;;;;;;;4970781;28;20472;-88
2023/05/03 06:05:43;;;;;;;6.93;4.78;;;;;;;;;;4970230;28;20043;-87
2023/05/03 06:08:10;;;;;;;7.63;5.18;;;;;;;;;;4954781;28;20053;-87
2023/05/03 06:10:36;;;;;;;8.70;4.57;;;;;;;;;;4954619;28;20499;-87
2023/05/03 06:13:02;;;;;;;7.80;4.43;;;;;;;;;;4970611;28;20050;-87
2023/05/03 06:15:28;;;;;;;5.32;4.40;;;;;;;;;;4971022;28;20078;-87
2023/05/03 06:17:54;;;;;;;7.75;4.18;;;;;;;;;;4970226;28;20548;-87
2023/05/03 06:20:23;;;;;;;7.20;4.50;;;;;;;;;;4975094;28;20136;-86
2023/05/03 06:22:48;;;;;;;5.22;4.70;;;;;;;;;;4955133;28;20100;-87
2023/05/03 06:25:15;;;;;;;4.75;3.65;;;;;;;;;;4954196;28;20038;-86
2023/05/03 06:27:41;;;;;;;6.78;4.43;;;;;;;;;;4954646;28;20081;-87
2023/05/03 06:30:07;;;;;;;9.07;3.75;;;;;;;;;;4975570;28;20073;-86
2023/05/03 06:32:33;;;;;;;5.68;3.78;;;;;;;;;;4954720;28;20042;-85
2023/05/03 06:34:59;;;;;;;7.32;3.40;;;;;;;;;;4975166;28;20046;-85
2023/05/03 06:37:26;;;;;;;5.47;3.65;;;;;;;;;;4954240;28;20076;-86
2023/05/03 06:39:52;;;;;;;4.20;2.97;;;;;;;;;;4970399;28;20791;-86
2023/05/03 06:42:17;;;;;;;6.65;2.95;;;;;;;;;;4954940;28;20046;-86
2023/05/03 06:44:43;;;;;;;6.55;3.42;;;;;;;;;;4971450;28;20381;-86
2023/05/03 06:47:09;;;;;;;3.63;2.88;;;;;;;;;;4962017;28;20056;-87
2023/05/03 06:49:35;;;;;;;5.75;3.13;;;;;;;;;;4957710;28;20034;-86
2023/05/03 06:52:01;;;;;;;5.22;2.42;;;;;;;;;;4971500;28;20069;-87
2023/05/03 06:54:27;;;;;;;5.10;1.85;;;;;;;;;;4970680;28;20747;-86
2023/05/03 06:56:53;;;;;;;6.47;2.20;;;;;;;;;;4972578;28;20070;-85
2023/05/03 06:59:19;;;;;;;5.13;1.50;;;;;;;;;;4953738;28;20051;-86
2023/05/03 07:01:46;;;;;;;6.15;1.30;;;;;;;;;;4971090;28;20499;-86
2023/05/03 07:04:12;;;;;;;3.22;2.20;;;;;;;;;;4953160;28;20771;-86
2023/05/03 07:06:38;;;;;;;4.32;1.27;;;;;;;;;;4953868;28;20550;-86
2023/05/03 07:09:04;;;;;;;4.32;1.65;;;;;;;;;;4969587;28;20129;-85
2023/05/03 07:11:30;;;;;;;3.10;1.40;;;;;;;;;;4955000;28;20065;-86
2023/05/03 07:13:56;;;;;;;3.03;1.52;;;;;;;;;;4969798;28;20050;-86
2023/05/03 07:16:24;;;;;;;2.05;1.05;;;;;;;;;;4970468;28;20050;-87
2023/05/03 07:18:50;;;;;;;4.30;1.25;;;;;;;;;;4970793;28;20476;-86
2023/05/03 07:21:16;;;;;;;3.70;1.35;;;;;;;;;;4953501;28;20082;-87
2023/05/03 07:23:43;;;;;;;4.10;1.30;;;10.60;99.90;;;;;;4953320;28;20419;-87
2023/05/03 07:26:09;;;;;;;9.15;1.45;;;;;;;;;;4971018;28;20049;-85
2023/05/03 07:28:35;;;;;;;5.88;1.92;;;;;;;;;;4956119;28;20045;-87
2023/05/03 07:31:02;;;;;;;5.82;1.70;;;;;;;;;;4973147;28;20057;-86
2023/05/03 07:33:28;;;;;;;3.03;1.30;;;;;;;;;;4951722;28;20054;-85
2023/05/03 07:35:54;;;;;;;2.60;1.60;;;;;;;;;;4953493;28;20042;-85
2023/05/03 07:38:20;;;;;;;3.53;1.17;;;;;;;;;;4971515;28;20059;-87
2023/05/03 07:40:46;;;;;;;5.30;1.83;;;;;;;;;;4969398;28;20062;-87
2023/05/03 07:43:12;;;;;;;2.65;1.50;;;;;;;;;;4955007;28;20424;-85
2023/05/03 07:45:38;;;;;;;3.83;1.77;;;;;;;;;;4956075;28;20050;-86
2023/05/03 07:48:05;;;;;;;1.92;1.55;;;;;;;;;;4955963;28;20871;-87
2023/05/03 07:50:31;;;;;;;5.80;1.38;;;;;;;;;;4955608;28;20125;-86
2023/05/03 07:52:57;;;;;;;4.63;1.60;;;;;;;;;;4955325;28;20066;-87
2023/05/03 07:55:27;;;;;;;5.05;2.78;;;;;;;;;;4957008;28;20050;-85
2023/05/03 07:57:57;;;;;;;4.22;1.70;;;;;;;;;;4962764;28;20081;-86
2023/05/03 08:00:23;;;;;;;3.35;1.70;;;;;;;;;;4959896;28;20076;-87
2023/05/03 08:02:49;;;;;;;3.25;1.20;;;;;;;;;;4974636;28;20070;-88
2023/05/03 08:05:16;;;;;;;3.30;1.45;;;10.70;99.90;;;;;;4974484;28;20046;-86
2023/05/03 08:07:43;;;;;;;2.40;0.88;;;;;;;;;;4974615;28;20046;-86
2023/05/03 08:10:09;;;;;;;3.08;1.30;;;;;;;;;;4958300;28;20054;-85
2023/05/03 08:12:35;;;;;;;3.88;1.40;;;;;;;;;;4958364;28;20056;-86
2023/05/03 08:15:05;;;;;;;2.08;1.00;;;;;;;;;;4975176;28;20050;-86
2023/05/03 08:17:32;;;;;;;3.42;1.45;;;;;;;;;;4958942;28;20420;-86
2023/05/03 08:19:58;;;;;;;4.50;0.95;;;;;;;;;;4958707;28;20053;-86
2023/05/03 08:22:25;;;;;;;3.15;1.30;;;;;;;;;;4958555;28;20050;-86
2023/05/03 08:24:52;;;;;;;2.38;1.55;;;;;;;;;;4975183;28;20101;-86
2023/05/03 08:27:18;;;;;;;4.22;1.20;;;;;;;;;;4974938;28;20455;-87
2023/05/03 08:29:44;;;;;;;4.25;1.35;;;;;;;;;;4958386;28;20046;-86
2023/05/03 08:32:10;;;;;;;8.13;1.30;;;;;;;;;;4974503;28;20046;-87
2023/05/03 08:34:36;;;;;;;1.58;1.23;;;;;;;;;;4974720;28;20096;-85
2023/05/03 08:37:04;;;;;;;3.45;0.93;;;;;;;;;;4973875;28;20048;-86
2023/05/03 08:39:30;;;;;;;5.30;1.50;;;;;;;;;;4956687;28;20046;-84
2023/05/03 08:41:57;;;;;;;2.92;1.55;;;;;;;;;;4972851;28;20054;-85
2023/05/03 08:44:24;;;;;;;4.70;1.30;;;;;;;;;;4956005;28;20081;-85
2023/05/03 08:46:50;;;;;;;2.25;1.45;;;;;;;;;;4956287;28;20042;-88
2023/05/03 08:49:17;;;;;;;2.15;1.42;;;;;;;;;;4955984;28;20089;-85
2023/05/03 08:51:47;;;;;;;4.88;1.30;;;;;;;;;;4973186;28;20408;-85
2023/05/03 08:54:19;;;;;;;4.40;1.13;;;;;;;;;;4956986;28;20144;-86
2023/05/03 08:56:46;;;;;;;4.97;1.70;;;;;;;;;;4956122;28;20054;-85
2023/05/03 08:59:12;;;;;;;5.40;1.80;;;;;;;;;;4971888;28;20050;-86
2023/05/03 09:01:39;;;;;;;2.28;1.65;;;;;;;;;;4971871;28;20511;-85
2023/05/03 09:04:05;;;;;;;3.78;1.10;;;;;;;;;;4972593;28;20049;-86
2023/05/03 09:06:34;;;;;;;2.55;1.15;;;;;;;;;;4955587;28;20042;-86
2023/05/03 09:09:01;;;;;;;2.10;1.30;;;;;;;;;;4977791;28;20049;-86
2023/05/03 09:11:30;;;;;;;6.35;1.55;;;;;;;;;;4956213;28;20448;-86
2023/05/03 09:14:13;;;;;;;5.57;1.58;;;;;;;;;;4971244;28;20044;-86
2023/05/03 09:16:40;;;;;;;3.63;1.58;;;11.00;99.90;;;;;;4955670;28;20050;-86
2023/05/03 09:19:10;;;;;;;4.65;1.40;;;11.10;99.90;;;;;;4971896;28;20523;-88
2023/05/03 09:21:36;;;;;;;8.02;1.70;;;;;;;;;;4955788;28;20639;-87
2023/05/03 09:24:03;;;;;;;3.03;1.38;;;;;;;;;;4972124;28;20038;-86
2023/05/03 09:26:28;;;;;;;1.77;1.10;;;;;;;;;;4971908;28;20042;-87
2023/05/03 09:28:55;;;;;;;2.33;1.50;;;;;;;;;;4957577;28;20455;-86
2023/05/03 09:31:21;;;;;;;3.58;1.50;;;;;;;;;;4957245;28;20520;-88
2023/05/03 09:33:47;;;;;;;4.80;1.50;;;;;;;;;;4957518;28;20038;-86
2023/05/03 09:36:13;;;;;;;2.60;1.50;;;;;;;;;;4979169;28;20050;-85
2023/05/03 09:38:39;;;;;;;5.57;1.48;;;;;;;;;;4972792;28;20053;-85
2023/05/03 09:41:05;;;;;;;4.18;1.15;;;;;;;;;;4975050;28;20057;-87
2023/05/03 09:43:32;;;;;;;3.45;1.30;;;;;;;;;;4972605;28;20046;-86
2023/05/03 09:46:11;;;;;;;3.58;1.38;;;12.00;99.90;;;;;;4973260;28;20053;-86
2023/05/03 09:48:38;;;;;;;8.43;1.50;;;;;;;;;;4954961;28;20031;-85
2023/05/03 09:51:04;;;;;;;4.10;1.90;;;;;;;;;;4975910;28;20062;-87
2023/05/03 09:53:35;;;;;;;6.40;1.90;;;12.60;99.90;;;;;;4971978;28;20042;-86
2023/05/03 09:56:11;;;;;;;2.50;1.60;;;12.70;99.90;;;;;;4960084;28;20049;-86
2023/05/03 09:58:37;;;;;;;3.53;1.35;;;;;;;;;;4953522;28;20042;-87
2023/05/03 10:01:03;;;;;;;2.30;1.40;;;;;;;;;;4957203;28;20053;-86
2023/05/03 10:03:43;;;;;;;2.65;1.48;;;;;;;;;;4973090;28;20045;-86
2023/05/03 10:06:34;;;;;;;7.65;1.48;;;13.50;99.90;;;;;;4966666;28;20050;-86
2023/05/03 10:09:07;;;;;;;1.98;1.23;;;13.50;99.90;;;;;;4958451;28;20749;-86
2023/05/03 10:11:35;;;;;;;3.83;1.20;;;13.80;99.90;;;;;;4958092;28;20052;-86
2023/05/03 10:14:01;;;;;;;3.35;1.23;;;;;;;;;;4963483;28;20054;-87
2023/05/03 10:16:32;;;;;;;4.45;1.55;;;13.60;99.90;;;;;;4962094;28;20042;-87
2023/05/03 10:19:18;;;;;;;2.83;1.67;;;13.40;99.90;;;;;;4956199;28;20077;-86
2023/05/03 10:21:44;;;;;;;4.35;1.40;;;;;;;;;;4956364;28;20046;-86
2023/05/03 10:24:14;;;;;;;3.85;2.05;;;;;;;;;;4956557;28;20074;-86
2023/05/03 10:26:49;;;;;;;6.72;1.63;;;13.00;99.90;;;;;;4972274;28;20453;-85
2023/05/03 10:29:47;;;;;;;9.02;1.85;;;13.00;99.90;;;;;;4956540;28;20034;-87
2023/05/03 10:32:28;;;;;;;5.90;1.40;;;13.00;99.90;;;;;;4975804;28;20051;-85
2023/05/03 10:35:02;;;;;;;2.95;1.42;;;13.10;99.90;;;;;;4973397;28;20050;-86
2023/05/03 10:37:28;;;;;;;6.47;1.83;;;;;;;;;;4973439;28;20096;-85
2023/05/03 10:39:55;;;;;;;4.40;1.40;;;;;;;;;;4972602;28;20046;-85
2023/05/03 10:42:22;;;;;;;6.28;2.00;;;;;;;;;;4955831;28;20046;-86
2023/05/03 10:44:51;;;;;;;5.13;1.52;;;13.40;99.90;;;;;;4952605;28;20142;-86
2023/05/03 10:47:25;;;;;;;3.67;1.63;;;13.40;99.90;;;;;;4945828;28;20417;-88
2023/05/03 10:50:13;;;;;;;5.38;1.60;;;13.80;99.90;;;;;;4951687;28;20193;-86
2023/05/03 10:52:46;;;;;;;3.33;1.33;;;13.70;99.90;;;;;;4972512;28;20062;-87
2023/05/03 10:55:14;;;;;;;1.98;1.20;;;14.00;99.90;;;;;;4972174;28;20459;-86
2023/05/03 10:57:45;;;;;;;3.45;1.40;;;14.00;99.90;;;;;;4955340;28;20049;-86
2023/05/03 11:00:21;;;;;;;5.90;1.33;;;13.90;99.90;;;;;;4972512;28;20097;-86
2023/05/03 11:03:14;;;;;;;3.63;1.70;;;13.80;99.90;;;;;;4970669;28;20049;-87
2023/05/03 11:05:41;;;;;;;4.78;1.50;;;;;;;;;;4957577;28;20045;-87
2023/05/03 11:08:29;;;;;;;5.93;1.38;;;;;;;;;;4969668;28;20241;-87
2023/05/03 11:11:01;;;;;;;7.72;1.30;;;14.20;99.90;;;;;;4967649;28;20050;-86
2023/05/03 11:13:27;;;;;;;3.78;1.23;;;;;;;;;;4951420;28;20077;-87
2023/05/03 11:15:56;;;;;;;4.28;1.20;;;13.80;99.90;;;;;;4949355;28;20510;-86
2023/05/03 11:18:22;;;;;;;2.70;1.40;;;;;;;;;;4969508;28;20042;-86
2023/05/03 11:20:48;;;;;;;2.45;1.38;;;13.70;99.90;;;;;;4971854;28;20468;-86
2023/05/03 11:23:15;;;;;;;2.95;1.40;;;;;;;;;;4953567;28;20121;-87
2023/05/03 11:25:41;;;;;;;4.78;1.55;;;;;;;;;;4969870;28;20073;-86
2023/05/03 11:28:07;;;;;;;3.42;1.25;;;;;;;;;;4977290;28;20042;-88
2023/05/03 11:30:36;;;;;;;2.58;1.10;;;14.00;99.90;;;;;;4952711;28;20858;-87
2023/05/03 11:33:02;;;;;;;4.85;2.10;;;;;;;;;;4954404;28;20108;-87
2023/05/03 11:35:29;;;;;;;3.85;1.58;;;14.00;99.90;;;;;;4959824;28;20420;-87
2023/05/03 11:37:55;;;;;;;4.18;1.52;;;;;;;;;;4970343;28;20152;-87
2023/05/03 11:40:22;;;;;;;7.40;1.77;;;;;;;;;;4953548;28;20100;-87
2023/05/03 11:42:58;;;;;;;4.60;2.50;;;14.20;99.90;;;;;;4954643;28;20145;-87
2023/05/03 11:45:45;;;;;;;2.92;1.65;;;14.00;99.90;;;;;;4952933;28;20038;-87
2023/05/03 11:48:11;;;;;;;4.32;1.90;;;13.70;99.90;;;;;;4967284;28;20089;-87
2023/05/03 11:50:52;;;;;;;3.75;1.50;;;;;;;;;;4974376;28;20046;-86
2023/05/03 11:53:18;;;;;;;5.22;1.90;;;;;;;;;;4971554;28;20066;-87
2023/05/03 11:55:46;;;;;;;2.80;1.45;;;14.00;99.90;;;;;;4958007;28;20057;-87
2023/05/03 11:58:25;;;;;;;8.07;1.67;;;14.10;99.90;;;;;;4956275;28;20043;-87
2023/05/03 12:00:53;;;;;;;5.03;1.60;;;13.90;99.90;;;;;;4953320;28;20397;-86
2023/05/03 12:03:24;;;;;;;3.95;1.77;;;14.30;99.90;;;;;;4968941;28;20129;-88
2023/05/03 12:05:51;;;;;;;5.00;2.30;;;;;;;;;;4973910;28;20038;-86
2023/05/03 12:08:20;;;;;;;4.45;1.38;;;;;;;;;;4953636;28;20157;-86
2023/05/03 12:10:46;;;;;;;4.90;1.55;;;;;;;;;;4969690;28;20046;-87
2023/05/03 12:13:12;;;;;;;5.65;1.85;;;;;;;;;;4953589;28;20403;-87
2023/05/03 12:15:39;;;;;;;4.65;2.30;;;14.40;99.90;;;;;;4953644;28;20578;-87
2023/05/03 12:18:09;;;;;;;4.43;1.88;;;;;;;;;;4953029;28;20038;-86
2023/05/03 12:20:36;;;;;;;5.10;2.40;;;14.30;99.90;;;;;;4973871;28;20046;-87
2023/05/03 12:23:04;;;;;;;4.07;2.05;;;14.20;99.90;;;;;;4952834;28;20041;-86
2023/05/03 12:25:31;;;;;;;6.40;2.42;;;14.30;99.90;;;;;;4957075;28;20039;-86
2023/05/03 12:27:59;;;;;;;3.85;2.10;;;14.10;99.90;;;;;;4970022;28;20081;-86
2023/05/03 12:30:25;;;;;;;5.65;2.05;;;14.20;99.90;;;;;;4956121;28;20042;-87
2023/05/03 12:32:52;;;;;;;7.78;3.15;;;;;;;;;;4970921;28;20121;-87
2023/05/03 12:35:22;;;;;;;5.88;2.63;;;14.30;99.90;;;;;;4954554;28;20512;-86
2023/05/03 12:37:49;;;;;;;4.65;2.90;;;;;;;;;;4979312;28;20295;-88
2023/05/03 12:40:17;;;;;;;5.15;2.28;;;13.60;99.90;;;;;;4975431;28;20046;-88
2023/05/03 12:42:43;;;;;;;4.07;2.70;;;;;;;;;;4956817;28;20042;-88
2023/05/03 12:45:11;;;;;;;7.22;2.55;;;13.70;99.90;;;;;;4972210;28;20074;-88
2023/05/03 12:47:37;;;;;;;4.43;2.50;;;;;;;;;;4972855;28;20034;-89
2023/05/03 12:50:03;;;;;;;3.05;2.40;;;;;;;;;;4956460;28;20122;-89
2023/05/03 12:52:33;;;;;;;4.55;2.75;;;;;;;;;;4973518;28;20050;-89
2023/05/03 12:54:59;;;;;;;8.10;2.55;;;;;;;;;;4956356;28;20042;-87
2023/05/03 12:57:25;;;;;;;5.22;2.78;;;;;;;;;;4979213;28;20137;-89
2023/05/03 12:59:54;;;;;;;4.53;2.60;;;;;;;;;;4956103;28;20126;-88
2023/05/03 13:02:20;;;;;;;5.18;3.13;;;;;;;;;;4980150;28;20494;-88
2023/05/03 13:04:49;;;;;;;4.50;2.03;;;;;;;;;;4955550;28;20078;-89
2023/05/03 13:07:15;;;;;;;7.72;2.40;;;;;;;;;;4956663;28;20057;-88
2023/05/03 13:09:44;;;;;;;3.97;2.35;;;14.40;99.90;;;;;;4961554;28;20046;-89
2023/05/03 13:12:11;;;;;;;3.60;2.80;;;;;;;;;;4974736;28;20038;-88
2023/05/03 13:14:37;;;;;;;4.72;2.17;;;;;;;;;;4974532;28;20042;-88
2023/05/03 13:17:03;;;;;;;4.47;2.90;;;;;;;;;;4975588;28;20042;-86
2023/05/03 13:19:29;;;;;;;5.38;3.20;;;;;;;;;;4962962;28;20046;-87
2023/05/03 13:21:55;;;;;;;4.50;2.88;;;;;;;;;;4960781;28;20072;-87
2023/05/03 13:24:22;;;;;;;3.78;2.50;;;;;;;;;;4964256;28;20069;-86
2023/05/03 13:26:48;;;;;;;4.45;2.63;;;;;;;;;;4962325;28;20045;-87
2023/05/03 13:29:14;;;;;;;6.35;2.70;;;;;;;;;;4965667;28;20046;-86
2023/05/03 13:31:40;;;;;;;4.85;3.33;;;;;;;;;;4960757;28;20035;-87
2023/05/03 13:34:06;;;;;;;6.50;2.90;;;;;;;;;;4959131;28;20038;-87
2023/05/03 13:36:32;;;;;;;3.55;2.83;;;;;;;;;;4968097;28;20057;-87
2023/05/03 13:38:58;;;;;;;4.38;2.78;;;;;;;;;;4975465;28;20129;-87
2023/05/03 13:41:25;;;;;;;4.60;2.60;;;;;;;;;;4970381;28;20117;-87
2023/05/03 13:43:54;;;;;;;4.50;2.42;;;;;;;;;;4993262;28;20038;-87
2023/05/03 13:46:20;;;;;;;2.92;2.28;;;;;;;;;;4962466;28;20093;-87
2023/05/03 13:48:46;;;;;;;7.65;2.92;;;;;;;;;;4960364;28;20042;-86
2023/05/03 13:51:12;;;;;;;7.25;2.50;;;14.20;99.90;;;;;;4975834;28;20049;-87
2023/05/03 13:53:38;;;;;;;4.78;2.40;;;14.20;99.90;;;;;;4973823;28;20062;-87
2023/05/03 13:56:05;;;;;;;4.15;2.55;;;14.40;99.90;;;;;;4957951;28;20046;-87
2023/05/03 13:58:33;;;;;;;3.35;2.72;;;;;;;;;;4957970;28;20551;-88
2023/05/03 14:00:59;;;;;;;6.15;2.60;;;;;;;;;;4958015;28;20483;-88
2023/05/03 14:03:25;;;;;;;10.25;3.45;;;;;;;;;;4952187;28;20123;-89
2023/05/03 14:05:52;;;;;;;3.80;2.67;;;;;;;;;;4954640;28;20031;-86
2023/05/03 14:08:17;;;;;;;2.92;2.55;;;14.10;99.90;;;;;;4955613;28;20390;-86
2023/05/03 14:14:31;;;;;;;6.68;2.85;;;;;;;;;;4987787;28;20032;-86
2023/05/03 14:16:57;;;;;;;3.00;2.47;;;;;;;;;;4957140;28;20031;-87
2023/05/03 14:19:23;;;;;;;4.32;2.80;;;;;;;;;;4956453;28;20502;-86
2023/05/03 14:21:50;;;;;;;7.75;2.60;;;;;;;;;;4983478;28;20041;-86
2023/05/03 14:24:16;;;;;;;3.25;2.70;;;;;;;;;;4975468;28;20057;-88
2023/05/03 14:26:42;;;;;;;6.68;2.75;;;;;;;;;;4961743;28;20153;-87
2023/05/03 14:29:08;;;;;;;4.80;2.83;;;;;;;;;;4956791;28;20042;-88